createdAt,value
2018-08-13T00:00:06.475Z,1020.65739107
2018-08-13T00:00:18.994Z,1020.65739107
2018-08-13T00:00:31.548Z,1020.65739107
2018-08-13T00:00:44.085Z,1020.65739107
2018-08-13T00:00:56.625Z,1020.65739107
2018-08-13T00:01:09.196Z,1020.69125495
2018-08-13T00:01:21.747Z,1020.69125495
2018-08-13T00:01:34.273Z,1020.69125495
2018-08-13T00:01:46.788Z,1020.69125495
2018-08-13T00:01:59.341Z,1020.69125495
2018-08-13T00:02:11.867Z,1020.69125495
2018-08-13T00:02:24.381Z,1020.69125495
2018-08-13T00:02:36.994Z,1020.69125495
2018-08-13T00:02:49.576Z,1020.69125495
2018-08-13T00:03:02.089Z,1020.72511883
2018-08-13T00:03:14.614Z,1020.72511883
2018-08-13T00:03:27.118Z,1020.72511883
2018-08-13T00:03:39.638Z,1020.72511883
2018-08-13T00:03:52.137Z,1020.72511883
2018-08-13T00:04:04.791Z,1020.69125495
2018-08-13T00:04:17.337Z,1020.69125495
2018-08-13T00:04:30.019Z,1020.69125495
2018-08-13T00:04:42.530Z,1020.69125495
2018-08-13T00:04:55.073Z,1020.69125495
2018-08-13T00:05:07.602Z,1020.62352719
2018-08-13T00:05:20.123Z,1020.62352719
2018-08-13T00:05:32.649Z,1020.62352719
2018-08-13T00:05:45.212Z,1020.62352719
2018-08-13T00:05:57.748Z,1020.62352719
2018-08-13T00:06:10.259Z,1020.65739107
2018-08-13T00:06:22.789Z,1020.65739107
2018-08-13T00:06:35.336Z,1020.65739107
2018-08-13T00:06:47.852Z,1020.65739107
2018-08-13T00:07:00.386Z,1020.5896633
2018-08-13T00:07:12.901Z,1020.5896633
2018-08-13T00:07:25.417Z,1020.5896633
2018-08-13T00:07:37.942Z,1020.5896633
2018-08-13T00:07:50.445Z,1020.5896633
2018-08-13T00:08:02.977Z,1020.5896633
2018-08-13T00:08:15.497Z,1020.5896633
2018-08-13T00:08:28.018Z,1020.5896633
2018-08-13T00:08:40.530Z,1020.5896633
2018-08-13T00:08:53.047Z,1020.5896633
2018-08-13T00:09:05.582Z,1020.48807166
2018-08-13T00:09:18.111Z,1020.48807166
2018-08-13T00:09:30.748Z,1020.48807166
2018-08-13T00:09:43.292Z,1020.48807166
2018-08-13T00:09:55.812Z,1020.48807166
2018-08-13T00:10:08.321Z,1020.48807166
2018-08-13T00:10:20.829Z,1020.48807166
2018-08-13T00:10:33.338Z,1020.48807166
2018-08-13T00:10:45.903Z,1020.48807166
2018-08-13T00:10:58.461Z,1020.48807166
2018-08-13T00:11:10.960Z,1020.55579942
2018-08-13T00:11:23.479Z,1020.55579942
2018-08-13T00:11:36.051Z,1020.55579942
2018-08-13T00:11:48.603Z,1020.55579942
2018-08-13T00:12:01.112Z,1020.48807166
2018-08-13T00:12:13.635Z,1020.48807166
2018-08-13T00:12:26.160Z,1020.48807166
2018-08-13T00:12:38.684Z,1020.48807166
2018-08-13T00:12:51.224Z,1020.48807166
2018-08-13T00:13:03.839Z,1020.55579942
2018-08-13T00:13:16.488Z,1020.55579942
2018-08-13T00:13:29.008Z,1020.55579942
2018-08-13T00:13:41.555Z,1020.55579942
2018-08-13T00:13:54.080Z,1020.55579942
2018-08-13T00:14:06.602Z,1020.52193554
2018-08-13T00:14:19.129Z,1020.52193554
2018-08-13T00:14:31.704Z,1020.52193554
2018-08-13T00:14:44.233Z,1020.52193554
2018-08-13T00:14:56.756Z,1020.52193554
2018-08-13T00:15:09.294Z,1020.52193554
2018-08-13T00:15:21.813Z,1020.52193554
2018-08-13T00:15:34.335Z,1020.52193554
2018-08-13T00:15:46.890Z,1020.52193554
2018-08-13T00:15:59.410Z,1020.52193554
2018-08-13T00:16:11.928Z,1020.55579942
2018-08-13T00:16:24.453Z,1020.55579942
2018-08-13T00:16:36.988Z,1020.55579942
2018-08-13T00:16:49.522Z,1020.55579942
2018-08-13T00:17:02.056Z,1020.48807166
2018-08-13T00:17:14.579Z,1020.48807166
2018-08-13T00:17:27.257Z,1020.48807166
2018-08-13T00:17:40.613Z,1020.48807166
2018-08-13T00:17:53.776Z,1020.48807166
2018-08-13T00:18:06.331Z,1020.48807166
2018-08-13T00:18:18.871Z,1020.48807166
2018-08-13T00:18:31.370Z,1020.48807166
2018-08-13T00:18:43.909Z,1020.48807166
2018-08-13T00:18:56.442Z,1020.48807166
2018-08-13T00:19:08.975Z,1020.45420778
2018-08-13T00:19:21.494Z,1020.45420778
2018-08-13T00:19:34.037Z,1020.45420778
2018-08-13T00:19:46.587Z,1020.45420778
2018-08-13T00:19:59.111Z,1020.45420778
2018-08-13T00:20:11.637Z,1020.45420778
2018-08-13T00:20:24.172Z,1020.45420778
2018-08-13T00:20:36.697Z,1020.45420778
2018-08-13T00:20:49.229Z,1020.45420778
2018-08-13T00:21:01.770Z,1020.4203439
2018-08-13T00:21:14.303Z,1020.4203439
2018-08-13T00:21:26.834Z,1020.4203439
2018-08-13T00:21:39.408Z,1020.4203439
2018-08-13T00:21:51.959Z,1020.4203439
2018-08-13T00:22:04.656Z,1020.38648001
2018-08-13T00:22:17.192Z,1020.38648001
2018-08-13T00:22:29.737Z,1020.38648001
2018-08-13T00:22:42.270Z,1020.38648001
2018-08-13T00:22:54.881Z,1020.38648001
2018-08-13T00:23:07.439Z,1020.35261613
2018-08-13T00:23:20.032Z,1020.35261613
2018-08-13T00:23:32.537Z,1020.35261613
2018-08-13T00:23:45.203Z,1020.35261613
2018-08-13T00:23:57.890Z,1020.35261613
2018-08-13T00:24:10.436Z,1020.38648001
2018-08-13T00:24:22.959Z,1020.38648001
2018-08-13T00:24:35.481Z,1020.38648001
2018-08-13T00:24:47.993Z,1020.38648001
2018-08-13T00:25:00.498Z,1020.38648001
2018-08-13T00:25:13.024Z,1020.38648001
2018-08-13T00:25:25.530Z,1020.38648001
2018-08-13T00:25:38.039Z,1020.38648001
2018-08-13T00:25:50.530Z,1020.38648001
2018-08-13T00:26:03.070Z,1020.38648001
2018-08-13T00:26:15.590Z,1020.38648001
2018-08-13T00:26:28.112Z,1020.38648001
2018-08-13T00:26:40.619Z,1020.38648001
2018-08-13T00:26:53.173Z,1020.38648001
2018-08-13T00:27:05.707Z,1020.31875225
2018-08-13T00:27:18.205Z,1020.31875225
2018-08-13T00:27:30.743Z,1020.31875225
2018-08-13T00:27:43.256Z,1020.31875225
2018-08-13T00:27:55.765Z,1020.31875225
2018-08-13T00:28:08.317Z,1020.38648001
2018-08-13T00:28:20.869Z,1020.38648001
2018-08-13T00:28:33.391Z,1020.38648001
2018-08-13T00:28:45.915Z,1020.38648001
2018-08-13T00:28:58.459Z,1020.38648001
2018-08-13T00:29:10.984Z,1020.35261613
2018-08-13T00:29:23.563Z,1020.35261613
2018-08-13T00:29:36.094Z,1020.35261613
2018-08-13T00:29:48.618Z,1020.35261613
2018-08-13T00:30:01.141Z,1020.35261613
2018-08-13T00:30:13.683Z,1020.35261613
2018-08-13T00:30:26.220Z,1020.35261613
2018-08-13T00:30:38.742Z,1020.35261613
2018-08-13T00:30:51.265Z,1020.35261613
2018-08-13T00:31:03.791Z,1020.4203439
2018-08-13T00:31:16.352Z,1020.4203439
2018-08-13T00:31:28.867Z,1020.4203439
2018-08-13T00:31:41.400Z,1020.4203439
2018-08-13T00:31:53.907Z,1020.4203439
2018-08-13T00:32:06.419Z,1020.31875225
2018-08-13T00:32:18.952Z,1020.31875225
2018-08-13T00:32:31.598Z,1020.31875225
2018-08-13T00:32:44.130Z,1020.31875225
2018-08-13T00:32:56.640Z,1020.31875225
2018-08-13T00:33:09.155Z,1020.35261613
2018-08-13T00:33:21.669Z,1020.35261613
2018-08-13T00:33:34.209Z,1020.35261613
2018-08-13T00:33:46.752Z,1020.35261613
2018-08-13T00:33:59.255Z,1020.35261613
2018-08-13T00:34:11.781Z,1020.4203439
2018-08-13T00:34:24.307Z,1020.4203439
2018-08-13T00:34:36.823Z,1020.4203439
2018-08-13T00:34:49.349Z,1020.4203439
2018-08-13T00:35:01.865Z,1020.35261613
2018-08-13T00:35:14.397Z,1020.35261613
2018-08-13T00:35:26.917Z,1020.35261613
2018-08-13T00:35:39.463Z,1020.35261613
2018-08-13T00:35:52.002Z,1020.35261613
2018-08-13T00:36:04.526Z,1020.38648001
2018-08-13T00:36:17.033Z,1020.38648001
2018-08-13T00:36:29.552Z,1020.38648001
2018-08-13T00:36:42.066Z,1020.38648001
2018-08-13T00:36:54.584Z,1020.38648001
2018-08-13T00:37:07.107Z,1020.31875225
2018-08-13T00:37:19.671Z,1020.31875225
2018-08-13T00:37:32.224Z,1020.31875225
2018-08-13T00:37:44.729Z,1020.31875225
2018-08-13T00:37:57.247Z,1020.31875225
2018-08-13T00:38:09.768Z,1020.31875225
2018-08-13T00:38:22.311Z,1020.31875225
2018-08-13T00:38:34.835Z,1020.31875225
2018-08-13T00:38:47.344Z,1020.31875225
2018-08-13T00:38:59.872Z,1020.31875225
2018-08-13T00:39:12.391Z,1020.31875225
2018-08-13T00:39:25.175Z,1020.31875225
2018-08-13T00:39:37.881Z,1020.31875225
2018-08-13T00:39:50.398Z,1020.31875225
2018-08-13T00:40:02.913Z,1020.31875225
2018-08-13T00:40:15.427Z,1020.31875225
2018-08-13T00:40:27.981Z,1020.31875225
2018-08-13T00:40:40.498Z,1020.31875225
2018-08-13T00:40:53.033Z,1020.31875225
2018-08-13T00:41:05.552Z,1020.35261613
2018-08-13T00:41:18.083Z,1020.35261613
2018-08-13T00:41:30.626Z,1020.35261613
2018-08-13T00:41:43.167Z,1020.35261613
2018-08-13T00:41:55.752Z,1020.35261613
2018-08-13T00:42:08.288Z,1020.35261613
2018-08-13T00:42:20.826Z,1020.35261613
2018-08-13T00:42:33.362Z,1020.35261613
2018-08-13T00:42:45.876Z,1020.35261613
2018-08-13T00:42:58.386Z,1020.35261613
2018-08-13T00:43:10.894Z,1020.31875225
2018-08-13T00:43:23.416Z,1020.31875225
2018-08-13T00:43:35.922Z,1020.31875225
2018-08-13T00:43:48.439Z,1020.31875225
2018-08-13T00:44:00.952Z,1020.35261613
2018-08-13T00:44:13.449Z,1020.35261613
2018-08-13T00:44:26.014Z,1020.35261613
2018-08-13T00:44:38.573Z,1020.35261613
2018-08-13T00:44:51.099Z,1020.35261613
2018-08-13T00:45:03.634Z,1020.35261613
2018-08-13T00:45:16.437Z,1020.35261613
2018-08-13T00:45:28.965Z,1020.35261613
2018-08-13T00:45:41.500Z,1020.35261613
2018-08-13T00:45:53.982Z,1020.35261613
2018-08-13T00:46:06.528Z,1020.38648001
2018-08-13T00:46:19.028Z,1020.38648001
2018-08-13T00:46:31.431Z,1020.38648001
2018-08-13T00:46:43.959Z,1020.38648001
2018-08-13T00:46:56.465Z,1020.38648001
2018-08-13T00:47:08.971Z,1020.25102449
2018-08-13T00:47:21.488Z,1020.25102449
2018-08-13T00:47:34.003Z,1020.25102449
2018-08-13T00:47:46.528Z,1020.25102449
2018-08-13T00:47:59.050Z,1020.25102449
2018-08-13T00:48:11.624Z,1020.35261613
2018-08-13T00:48:24.200Z,1020.35261613
2018-08-13T00:48:36.688Z,1020.35261613
2018-08-13T00:48:49.225Z,1020.35261613
2018-08-13T00:49:01.905Z,1020.25102449
2018-08-13T00:49:14.444Z,1020.25102449
2018-08-13T00:49:26.989Z,1020.25102449
2018-08-13T00:49:39.499Z,1020.25102449
2018-08-13T00:49:52.026Z,1020.25102449
2018-08-13T00:50:04.538Z,1020.28488837
2018-08-13T00:50:17.062Z,1020.28488837
2018-08-13T00:50:29.571Z,1020.28488837
2018-08-13T00:50:42.108Z,1020.28488837
2018-08-13T00:50:54.646Z,1020.28488837
2018-08-13T00:51:07.167Z,1020.31875225
2018-08-13T00:51:19.721Z,1020.31875225
2018-08-13T00:51:32.241Z,1020.31875225
2018-08-13T00:51:44.909Z,1020.31875225
2018-08-13T00:51:57.489Z,1020.31875225
2018-08-13T00:52:10.030Z,1020.28488837
2018-08-13T00:52:22.555Z,1020.28488837
2018-08-13T00:52:35.061Z,1020.28488837
2018-08-13T00:52:47.590Z,1020.28488837
2018-08-13T00:53:00.114Z,1020.31875225
2018-08-13T00:53:12.628Z,1020.31875225
2018-08-13T00:53:25.143Z,1020.31875225
2018-08-13T00:53:37.659Z,1020.31875225
2018-08-13T00:53:50.347Z,1020.31875225
2018-08-13T00:54:02.893Z,1020.28488837
2018-08-13T00:54:15.420Z,1020.28488837
2018-08-13T00:54:28.057Z,1020.28488837
2018-08-13T00:54:40.552Z,1020.28488837
2018-08-13T00:54:53.077Z,1020.28488837
2018-08-13T00:55:05.574Z,1020.31875225
2018-08-13T00:55:18.103Z,1020.31875225
2018-08-13T00:55:30.628Z,1020.31875225
2018-08-13T00:55:43.135Z,1020.31875225
2018-08-13T00:55:55.648Z,1020.31875225
2018-08-13T00:56:08.173Z,1020.21716061
2018-08-13T00:56:20.710Z,1020.21716061
2018-08-13T00:56:33.377Z,1020.21716061
2018-08-13T00:56:45.917Z,1020.21716061
2018-08-13T00:56:58.490Z,1020.21716061
2018-08-13T00:57:11.030Z,1020.28488837
2018-08-13T00:57:23.530Z,1020.28488837
2018-08-13T00:57:36.036Z,1020.28488837
2018-08-13T00:57:48.585Z,1020.28488837
2018-08-13T00:58:01.103Z,1020.14943284
2018-08-13T00:58:13.616Z,1020.14943284
2018-08-13T00:58:26.162Z,1020.14943284
2018-08-13T00:58:38.667Z,1020.14943284
2018-08-13T00:58:51.192Z,1020.14943284
2018-08-13T00:59:03.715Z,1020.14943284
2018-08-13T00:59:16.221Z,1020.14943284
2018-08-13T00:59:28.740Z,1020.14943284
2018-08-13T00:59:41.253Z,1020.14943284
2018-08-13T00:59:53.885Z,1020.14943284
2018-08-13T01:00:06.409Z,1020.14943284
2018-08-13T01:00:18.936Z,1020.14943284
2018-08-13T01:00:31.464Z,1020.14943284
2018-08-13T01:00:44.015Z,1020.14943284
2018-08-13T01:00:56.577Z,1020.14943284
2018-08-13T01:01:09.130Z,1020.08170508
2018-08-13T01:01:21.660Z,1020.08170508
2018-08-13T01:01:34.190Z,1020.08170508
2018-08-13T01:01:46.702Z,1020.08170508
2018-08-13T01:01:59.233Z,1020.08170508
2018-08-13T01:02:11.785Z,1020.14943284
2018-08-13T01:02:24.315Z,1020.14943284
2018-08-13T01:02:37.003Z,1020.14943284
2018-08-13T01:02:49.535Z,1020.14943284
2018-08-13T01:03:02.053Z,1020.21716061
2018-08-13T01:03:14.569Z,1020.21716061
2018-08-13T01:03:27.104Z,1020.21716061
2018-08-13T01:03:39.639Z,1020.21716061
2018-08-13T01:03:52.220Z,1020.21716061
2018-08-13T01:04:04.748Z,1020.14943284
2018-08-13T01:04:17.280Z,1020.14943284
2018-08-13T01:04:29.898Z,1020.14943284
2018-08-13T01:04:42.416Z,1020.14943284
2018-08-13T01:04:54.930Z,1020.14943284
2018-08-13T01:05:07.453Z,1020.14943284
2018-08-13T01:05:19.987Z,1020.14943284
2018-08-13T01:05:32.498Z,1020.14943284
2018-08-13T01:05:45.003Z,1020.14943284
2018-08-13T01:05:57.543Z,1020.14943284
2018-08-13T01:06:10.063Z,1020.14943284
2018-08-13T01:06:22.592Z,1020.14943284
2018-08-13T01:06:35.144Z,1020.14943284
2018-08-13T01:06:47.654Z,1020.14943284
2018-08-13T01:07:00.165Z,1020.14943284
2018-08-13T01:07:12.679Z,1020.14943284
2018-08-13T01:07:25.206Z,1020.14943284
2018-08-13T01:07:37.744Z,1020.14943284
2018-08-13T01:07:50.271Z,1020.14943284
2018-08-13T01:08:02.817Z,1020.18329673
2018-08-13T01:08:15.347Z,1020.18329673
2018-08-13T01:08:27.873Z,1020.18329673
2018-08-13T01:08:40.393Z,1020.18329673
2018-08-13T01:08:52.908Z,1020.18329673
2018-08-13T01:09:05.441Z,1020.25102449
2018-08-13T01:09:17.992Z,1020.25102449
2018-08-13T01:09:30.534Z,1020.25102449
2018-08-13T01:09:43.041Z,1020.25102449
2018-08-13T01:09:55.560Z,1020.25102449
2018-08-13T01:10:08.117Z,1020.08170508
2018-08-13T01:10:20.641Z,1020.08170508
2018-08-13T01:10:33.178Z,1020.08170508
2018-08-13T01:10:45.741Z,1020.08170508
2018-08-13T01:10:58.261Z,1020.08170508
2018-08-13T01:11:10.774Z,1020.14943284
2018-08-13T01:11:23.288Z,1020.14943284
2018-08-13T01:11:35.811Z,1020.14943284
2018-08-13T01:11:48.330Z,1020.14943284
2018-08-13T01:12:00.865Z,1020.14943284
2018-08-13T01:12:13.407Z,1020.14943284
2018-08-13T01:12:25.964Z,1020.14943284
2018-08-13T01:12:38.533Z,1020.14943284
2018-08-13T01:12:51.055Z,1020.14943284
2018-08-13T01:13:03.594Z,1020.08170508
2018-08-13T01:13:16.303Z,1020.08170508
2018-08-13T01:13:28.826Z,1020.08170508
2018-08-13T01:13:41.357Z,1020.08170508
2018-08-13T01:13:53.889Z,1020.08170508
2018-08-13T01:14:06.412Z,1020.11556896
2018-08-13T01:14:18.933Z,1020.11556896
2018-08-13T01:14:31.472Z,1020.11556896
2018-08-13T01:14:44.003Z,1020.11556896
2018-08-13T01:14:56.509Z,1020.11556896
2018-08-13T01:15:09.039Z,1020.01397732
2018-08-13T01:15:21.562Z,1020.01397732
2018-08-13T01:15:34.097Z,1020.01397732
2018-08-13T01:15:46.615Z,1020.01397732
2018-08-13T01:15:59.142Z,1020.01397732
2018-08-13T01:16:11.691Z,1020.08170508
2018-08-13T01:16:24.213Z,1020.08170508
2018-08-13T01:16:36.735Z,1020.08170508
2018-08-13T01:16:49.252Z,1020.08170508
2018-08-13T01:17:01.838Z,1020.01397732
2018-08-13T01:17:14.406Z,1020.01397732
2018-08-13T01:17:26.896Z,1020.01397732
2018-08-13T01:17:39.424Z,1020.01397732
2018-08-13T01:17:51.947Z,1020.01397732
2018-08-13T01:18:04.461Z,1020.11556896
2018-08-13T01:18:17.029Z,1020.11556896
2018-08-13T01:18:29.554Z,1020.11556896
2018-08-13T01:18:42.074Z,1020.11556896
2018-08-13T01:18:54.615Z,1020.11556896
2018-08-13T01:19:07.126Z,1020.0478412
2018-08-13T01:19:19.660Z,1020.0478412
2018-08-13T01:19:32.296Z,1020.0478412
2018-08-13T01:19:44.825Z,1020.0478412
2018-08-13T01:19:57.341Z,1020.0478412
2018-08-13T01:20:09.881Z,1020.01397732
2018-08-13T01:20:22.459Z,1020.01397732
2018-08-13T01:20:34.980Z,1020.01397732
2018-08-13T01:20:47.513Z,1020.01397732
2018-08-13T01:21:00.033Z,1020.0478412
2018-08-13T01:21:12.609Z,1020.0478412
2018-08-13T01:21:25.136Z,1020.0478412
2018-08-13T01:21:37.663Z,1020.0478412
2018-08-13T01:21:50.185Z,1020.0478412
2018-08-13T01:22:02.733Z,1020.08170508
2018-08-13T01:22:15.419Z,1020.08170508
2018-08-13T01:22:27.946Z,1020.08170508
2018-08-13T01:22:40.510Z,1020.08170508
2018-08-13T01:22:53.052Z,1020.08170508
2018-08-13T01:23:05.576Z,1019.98011344
2018-08-13T01:23:18.123Z,1019.98011344
2018-08-13T01:23:30.654Z,1019.98011344
2018-08-13T01:23:43.289Z,1019.98011344
2018-08-13T01:23:55.803Z,1019.98011344
2018-08-13T01:24:08.323Z,1019.98011344
2018-08-13T01:24:20.944Z,1019.98011344
2018-08-13T01:24:33.583Z,1019.98011344
2018-08-13T01:24:46.116Z,1019.98011344
2018-08-13T01:24:58.644Z,1019.98011344
2018-08-13T01:25:11.184Z,1019.98011344
2018-08-13T01:25:23.726Z,1019.98011344
2018-08-13T01:25:36.263Z,1019.98011344
2018-08-13T01:25:48.795Z,1019.98011344
2018-08-13T01:26:01.310Z,1020.01397732
2018-08-13T01:26:13.839Z,1020.01397732
2018-08-13T01:26:26.509Z,1020.01397732
2018-08-13T01:26:39.057Z,1020.01397732
2018-08-13T01:26:51.585Z,1020.01397732
2018-08-13T01:27:04.132Z,1020.0478412
2018-08-13T01:27:16.672Z,1020.0478412
2018-08-13T01:27:29.188Z,1020.0478412
2018-08-13T01:27:41.709Z,1020.0478412
2018-08-13T01:27:54.253Z,1020.0478412
2018-08-13T01:28:06.783Z,1020.0478412
2018-08-13T01:28:19.294Z,1020.0478412
2018-08-13T01:28:31.828Z,1020.0478412
2018-08-13T01:28:44.339Z,1020.0478412
2018-08-13T01:28:56.893Z,1020.0478412
2018-08-13T01:29:09.415Z,1020.01397732
2018-08-13T01:29:21.942Z,1020.01397732
2018-08-13T01:29:34.464Z,1020.01397732
2018-08-13T01:29:47.005Z,1020.01397732
2018-08-13T01:29:59.614Z,1020.01397732
2018-08-13T01:30:12.192Z,1020.01397732
2018-08-13T01:30:24.729Z,1020.01397732
2018-08-13T01:30:37.271Z,1020.01397732
2018-08-13T01:30:49.805Z,1020.01397732
2018-08-13T01:31:02.339Z,1019.87852179
2018-08-13T01:31:14.860Z,1019.87852179
2018-08-13T01:31:27.437Z,1019.87852179
2018-08-13T01:31:39.961Z,1019.87852179
2018-08-13T01:31:52.512Z,1019.87852179
2018-08-13T01:32:05.060Z,1019.87852179
2018-08-13T01:32:17.781Z,1019.87852179
2018-08-13T01:32:30.303Z,1019.87852179
2018-08-13T01:32:43.024Z,1019.87852179
2018-08-13T01:32:55.636Z,1019.87852179
2018-08-13T01:33:08.179Z,1019.98011344
2018-08-13T01:33:20.715Z,1019.98011344
2018-08-13T01:33:33.221Z,1019.98011344
2018-08-13T01:33:45.739Z,1019.98011344
2018-08-13T01:33:58.259Z,1019.98011344
2018-08-13T01:34:10.784Z,1019.98011344
2018-08-13T01:34:23.293Z,1019.98011344
2018-08-13T01:34:35.828Z,1019.98011344
2018-08-13T01:34:48.331Z,1019.98011344
2018-08-13T01:35:00.850Z,1019.94624955
2018-08-13T01:35:13.383Z,1019.94624955
2018-08-13T01:35:25.908Z,1019.94624955
2018-08-13T01:35:38.455Z,1019.94624955
2018-08-13T01:35:50.983Z,1019.94624955
2018-08-13T01:36:03.507Z,1019.91238567
2018-08-13T01:36:16.018Z,1019.91238567
2018-08-13T01:36:28.581Z,1019.91238567
2018-08-13T01:36:41.115Z,1019.91238567
2018-08-13T01:36:53.630Z,1019.91238567
2018-08-13T01:37:06.144Z,1019.94624955
2018-08-13T01:37:18.697Z,1019.94624955
2018-08-13T01:37:31.210Z,1019.94624955
2018-08-13T01:37:43.747Z,1019.94624955
2018-08-13T01:37:56.257Z,1019.94624955
2018-08-13T01:38:08.777Z,1019.91238567
2018-08-13T01:38:21.287Z,1019.91238567
2018-08-13T01:38:33.807Z,1019.91238567
2018-08-13T01:38:46.314Z,1019.91238567
2018-08-13T01:38:58.835Z,1019.91238567
2018-08-13T01:39:11.360Z,1019.91238567
2018-08-13T01:39:23.956Z,1019.91238567
2018-08-13T01:39:36.470Z,1019.91238567
2018-08-13T01:39:49.260Z,1019.91238567
2018-08-13T01:40:01.766Z,1019.87852179
2018-08-13T01:40:14.436Z,1019.87852179
2018-08-13T01:40:26.958Z,1019.87852179
2018-08-13T01:40:39.501Z,1019.87852179
2018-08-13T01:40:52.028Z,1019.87852179
2018-08-13T01:41:04.542Z,1019.84465791
2018-08-13T01:41:17.058Z,1019.84465791
2018-08-13T01:41:29.598Z,1019.84465791
2018-08-13T01:41:42.121Z,1019.84465791
2018-08-13T01:41:54.629Z,1019.84465791
2018-08-13T01:42:07.154Z,1019.81079403
2018-08-13T01:42:19.671Z,1019.81079403
2018-08-13T01:42:32.195Z,1019.81079403
2018-08-13T01:42:44.718Z,1019.81079403
2018-08-13T01:42:57.236Z,1019.81079403
2018-08-13T01:43:09.755Z,1019.77693015
2018-08-13T01:43:22.311Z,1019.77693015
2018-08-13T01:43:34.851Z,1019.77693015
2018-08-13T01:43:47.355Z,1019.77693015
2018-08-13T01:43:59.877Z,1019.81079403
2018-08-13T01:44:12.399Z,1019.81079403
2018-08-13T01:44:24.931Z,1019.81079403
2018-08-13T01:44:37.452Z,1019.81079403
2018-08-13T01:44:49.970Z,1019.81079403
2018-08-13T01:45:02.495Z,1019.87852179
2018-08-13T01:45:15.091Z,1019.87852179
2018-08-13T01:45:27.647Z,1019.87852179
2018-08-13T01:45:40.166Z,1019.87852179
2018-08-13T01:45:52.690Z,1019.87852179
2018-08-13T01:46:05.212Z,1019.84465791
2018-08-13T01:46:17.773Z,1019.84465791
2018-08-13T01:46:30.299Z,1019.84465791
2018-08-13T01:46:42.828Z,1019.84465791
2018-08-13T01:46:55.624Z,1019.84465791
2018-08-13T01:47:08.145Z,1019.81079403
2018-08-13T01:47:20.673Z,1019.81079403
2018-08-13T01:47:33.216Z,1019.81079403
2018-08-13T01:47:45.753Z,1019.81079403
2018-08-13T01:47:58.317Z,1019.81079403
2018-08-13T01:48:10.857Z,1019.81079403
2018-08-13T01:48:23.371Z,1019.81079403
2018-08-13T01:48:35.889Z,1019.81079403
2018-08-13T01:48:48.405Z,1019.81079403
2018-08-13T01:49:01.089Z,1019.74306626
2018-08-13T01:49:13.614Z,1019.74306626
2018-08-13T01:49:26.116Z,1019.74306626
2018-08-13T01:49:38.625Z,1019.74306626
2018-08-13T01:49:51.153Z,1019.74306626
2018-08-13T01:50:03.676Z,1019.77693015
2018-08-13T01:50:16.215Z,1019.77693015
2018-08-13T01:50:28.736Z,1019.77693015
2018-08-13T01:50:41.318Z,1019.77693015
2018-08-13T01:50:53.858Z,1019.77693015
2018-08-13T01:51:06.382Z,1019.84465791
2018-08-13T01:51:18.941Z,1019.84465791
2018-08-13T01:51:31.469Z,1019.84465791
2018-08-13T01:51:44.653Z,1019.84465791
2018-08-13T01:51:57.167Z,1019.84465791
2018-08-13T01:52:09.697Z,1019.74306626
2018-08-13T01:52:22.229Z,1019.74306626
2018-08-13T01:52:34.747Z,1019.74306626
2018-08-13T01:52:47.256Z,1019.74306626
2018-08-13T01:52:59.809Z,1019.6753385
2018-08-13T01:53:12.353Z,1019.6753385
2018-08-13T01:53:24.887Z,1019.6753385
2018-08-13T01:53:37.410Z,1019.6753385
2018-08-13T01:53:49.935Z,1019.6753385
2018-08-13T01:54:02.428Z,1019.6753385
2018-08-13T01:54:14.994Z,1019.6753385
2018-08-13T01:54:27.543Z,1019.6753385
2018-08-13T01:54:40.078Z,1019.6753385
2018-08-13T01:54:52.607Z,1019.6753385
2018-08-13T01:55:05.124Z,1019.60761074
2018-08-13T01:55:17.678Z,1019.60761074
2018-08-13T01:55:30.204Z,1019.60761074
2018-08-13T01:55:42.715Z,1019.60761074
2018-08-13T01:55:55.262Z,1019.60761074
2018-08-13T01:56:07.840Z,1019.74306626
2018-08-13T01:56:20.523Z,1019.74306626
2018-08-13T01:56:33.202Z,1019.74306626
2018-08-13T01:56:45.726Z,1019.74306626
2018-08-13T01:56:58.237Z,1019.74306626
2018-08-13T01:57:10.761Z,1019.64147462
2018-08-13T01:57:23.287Z,1019.64147462
2018-08-13T01:57:35.803Z,1019.64147462
2018-08-13T01:57:48.336Z,1019.64147462
2018-08-13T01:58:00.866Z,1019.64147462
2018-08-13T01:58:13.380Z,1019.64147462
2018-08-13T01:58:25.911Z,1019.64147462
2018-08-13T01:58:38.572Z,1019.64147462
2018-08-13T01:58:51.097Z,1019.64147462
2018-08-13T01:59:03.634Z,1019.70920238
2018-08-13T01:59:16.172Z,1019.70920238
2018-08-13T01:59:28.735Z,1019.70920238
2018-08-13T01:59:41.271Z,1019.70920238
2018-08-13T01:59:53.901Z,1019.70920238
2018-08-13T02:00:06.452Z,1019.57374686
2018-08-13T02:00:18.991Z,1019.57374686
2018-08-13T02:00:31.507Z,1019.57374686
2018-08-13T02:00:44.034Z,1019.57374686
2018-08-13T02:00:56.606Z,1019.57374686
2018-08-13T02:01:09.195Z,1019.6753385
2018-08-13T02:01:22.381Z,1019.6753385
2018-08-13T02:01:36.438Z,1019.6753385
2018-08-13T02:01:49.767Z,1019.6753385
2018-08-13T02:02:02.803Z,1019.64147462
2018-08-13T02:02:15.354Z,1019.64147462
2018-08-13T02:02:28.038Z,1019.64147462
2018-08-13T02:02:40.580Z,1019.64147462
2018-08-13T02:02:53.104Z,1019.64147462
2018-08-13T02:03:05.632Z,1019.64147462
2018-08-13T02:03:18.162Z,1019.64147462
2018-08-13T02:03:30.691Z,1019.64147462
2018-08-13T02:03:43.234Z,1019.64147462
2018-08-13T02:03:55.784Z,1019.64147462
2018-08-13T02:04:08.318Z,1019.57374686
2018-08-13T02:04:20.860Z,1019.57374686
2018-08-13T02:04:33.508Z,1019.57374686
2018-08-13T02:04:46.035Z,1019.57374686
2018-08-13T02:04:58.568Z,1019.57374686
2018-08-13T02:05:11.135Z,1019.64147462
2018-08-13T02:05:23.669Z,1019.64147462
2018-08-13T02:05:36.192Z,1019.64147462
2018-08-13T02:05:48.710Z,1019.64147462
2018-08-13T02:06:01.276Z,1019.64147462
2018-08-13T02:06:13.866Z,1019.64147462
2018-08-13T02:06:26.451Z,1019.64147462
2018-08-13T02:06:39.037Z,1019.64147462
2018-08-13T02:06:51.568Z,1019.64147462
2018-08-13T02:07:04.082Z,1019.57374686
2018-08-13T02:07:16.637Z,1019.57374686
2018-08-13T02:07:29.157Z,1019.57374686
2018-08-13T02:07:41.681Z,1019.57374686
2018-08-13T02:07:54.189Z,1019.57374686
2018-08-13T02:08:06.742Z,1019.60761074
2018-08-13T02:08:19.256Z,1019.60761074
2018-08-13T02:08:31.786Z,1019.60761074
2018-08-13T02:08:44.303Z,1019.60761074